Sunday, November 19, 2017, 10:40 AM GMT
Back to Local

CYTR, Trenton, Ont.

Location: , , Canada Lat: 44.117
Local Time: 10:40 AM GMT (10:40 GMT) Lon: -77.533
Time Zone: GMT Elev: 278 ft

Show me the last for .
Show Coded

Time T Td Feel RH Dir Speed Gust Alt SLP Vis Weather Sky Remarks
2017-11-19 10:00 32 32 20 100 330° 15 21 29.22 29.23 6 -SN OVC009 None
2017-11-19 09:00 32 32 19 100 340° 14 22 29.17 29.18 5 -SHRA BR OVC008 None
2017-11-19 08:00 36 36 24 100 360° 12 24 29.12 29.13 4 -SHRA BR OVC007 None
2017-11-19 07:00 37 36 28 93 360° 12 17 29.11 29.11 4 -SHRA BR OVC005 None
2017-11-19 06:00 37 37 29 100 20° 13 - 29.08 29.09 4 -SHRA BR OVC004 None
2017-11-19 05:00 39 39 32 100 30° 13 - 29.10 29.10 4 -SHRA BR OVC005 None
2017-11-19 04:00 45 45 41 100 50° 6 - 29.13 29.13 4 -SHRA BR OVC005 None
2017-11-19 03:00 45 45 41 100 130° 6 - 29.18 29.19 3 -SHRA BR OVC005 None
2017-11-19 02:23 45 45 41 100 130° 7 - 29.20 29.20 2 -SHRA BR OVC005 Pressure falling rapidly
2017-11-19 02:00 45 45 41 100 140° 6 - 29.22 29.23 6 -DZ BR OVC005 None
2017-11-19 01:00 45 45 41 100 130° 6 - 29.26 29.27 6 -SHRA BR BKN005 OVC027 None
2017-11-19 00:00 45 45 42 100 140° 5 - 29.30 29.31 3 -SHRA BR BKN008 OVC027 None
2017-11-18 23:00 45 45 43 100 90° 3 - 29.35 29.36 3 -SHRA BR OVC010 None
2017-11-18 22:31 45 45 42 100 60° 5 - 29.35 29.36 3 BR OVC010 None
2017-11-18 22:00 45 45 - 100 110° 2 - 29.37 29.38 1 -DZ BR OVC008 None
2017-11-18 21:00 45 45 42 100 80° 5 - 29.39 29.40 1 -DZ BR OVC006 None
2017-11-18 20:00 45 45 43 100 100° 3 - 29.41 29.42 1 -DZ BR OVC006 None
2017-11-18 19:00 43 43 - 100 120° 2 - 29.46 29.47 1 -DZ BR OVC006 None
2017-11-18 18:00 43 43 39 100 180° 6 - 29.48 29.49 1 -DZ BR OVC005 None
2017-11-18 17:38 45 43 40 93 180° 9 - 29.48 29.49 4 -DZ BR OVC012 None
2017-11-18 17:00 46 41 43 81 180° 7 - 29.49 29.50 15 BKN019 OVC110 Pressure falling rapidly
2017-11-18 16:00 41 39 39 93 120° 3 - 29.56 29.57 15 BKN027 OVC110 None
2017-11-18 15:00 39 37 35 93 40° 6 - 29.59 29.61 15 -DZ BKN023 OVC150 None
2017-11-18 14:45 39 37 34 93 50° 7 - 29.58 29.60 12 -DZ BKN023 OVC110 None
2017-11-18 14:00 39 37 35 93 50° 6 - 29.61 29.62 12 -RA SCT044 BKN110 OVC150 None
2017-11-18 13:00 37 36 33 93 70° 6 - 29.62 29.63 12 -RA SCT054 BKN110 OVC150 None
2017-11-18 12:35 37 34 33 86 70° 6 - 29.65 29.67 12 -RA BKN110 OVC150 None
2017-11-18 12:00 37 32 33 80 60° 6 - 29.67 29.69 15 OVC110 None
2017-11-18 11:00 37 32 33 80 80° 6 - 29.69 29.70 15 OVC110 None

Support USWX by starting your Amazon purchase here.